sensor_id;sensor_type;location;lat;lon;timestamp;P1;durP1;ratioP1;P2;durP2;ratioP2
9541;SDS011;4809;48.224;8.572;2022-12-29T00:01:35;3.00;;;2.22;;
9541;SDS011;4809;48.224;8.572;2022-12-29T00:04:02;2.88;;;2.10;;
9541;SDS011;4809;48.224;8.572;2022-12-29T00:06:28;2.50;;;2.28;;
9541;SDS011;4809;48.224;8.572;2022-12-29T00:08:54;2.47;;;2.20;;
9541;SDS011;4809;48.224;8.572;2022-12-29T00:11:20;2.72;;;2.25;;
9541;SDS011;4809;48.224;8.572;2022-12-29T00:13:48;2.53;;;2.33;;
9541;SDS011;4809;48.224;8.572;2022-12-29T00:16:33;3.20;;;2.42;;
9541;SDS011;4809;48.224;8.572;2022-12-29T00:18:59;2.50;;;2.30;;
9541;SDS011;4809;48.224;8.572;2022-12-29T00:21:25;3.13;;;2.35;;
9541;SDS011;4809;48.224;8.572;2022-12-29T00:24:17;3.00;;;2.20;;
9541;SDS011;4809;48.224;8.572;2022-12-29T00:29:50;3.90;;;2.50;;
9541;SDS011;4809;48.224;8.572;2022-12-29T00:32:34;3.13;;;2.17;;
9541;SDS011;4809;48.224;8.572;2022-12-29T00:36:06;3.90;;;2.30;;
9541;SDS011;4809;48.224;8.572;2022-12-29T00:38:17;3.27;;;2.37;;
9541;SDS011;4809;48.224;8.572;2022-12-29T00:41:01;2.63;;;2.30;;
9541;SDS011;4809;48.224;8.572;2022-12-29T00:43:46;3.97;;;2.50;;
9541;SDS011;4809;48.224;8.572;2022-12-29T00:46:29;2.78;;;2.30;;
9541;SDS011;4809;48.224;8.572;2022-12-29T00:48:56;4.60;;;2.33;;
9541;SDS011;4809;48.224;8.572;2022-12-29T00:51:40;3.20;;;2.20;;
9541;SDS011;4809;48.224;8.572;2022-12-29T00:54:06;3.00;;;2.10;;
9541;SDS011;4809;48.224;8.572;2022-12-29T00:56:32;2.50;;;2.00;;
9541;SDS011;4809;48.224;8.572;2022-12-29T00:59:01;2.20;;;1.98;;
9541;SDS011;4809;48.224;8.572;2022-12-29T01:01:27;2.17;;;1.93;;
9541;SDS011;4809;48.224;8.572;2022-12-29T01:03:53;2.55;;;2.00;;
9541;SDS011;4809;48.224;8.572;2022-12-29T01:06:19;2.60;;;1.90;;
9541;SDS011;4809;48.224;8.572;2022-12-29T01:08:44;2.08;;;1.77;;
9541;SDS011;4809;48.224;8.572;2022-12-29T01:11:11;3.37;;;1.73;;
9541;SDS011;4809;48.224;8.572;2022-12-29T01:13:38;2.78;;;1.80;;
9541;SDS011;4809;48.224;8.572;2022-12-29T01:16:05;2.13;;;1.77;;
9541;SDS011;4809;48.224;8.572;2022-12-29T01:18:31;1.60;;;1.50;;
9541;SDS011;4809;48.224;8.572;2022-12-29T01:20:58;1.95;;;1.80;;
9541;SDS011;4809;48.224;8.572;2022-12-29T01:23:28;1.80;;;1.45;;
9541;SDS011;4809;48.224;8.572;2022-12-29T01:25:54;1.60;;;1.48;;
9541;SDS011;4809;48.224;8.572;2022-12-29T01:28:20;3.17;;;1.70;;
9541;SDS011;4809;48.224;8.572;2022-12-29T01:30:46;2.85;;;1.70;;
9541;SDS011;4809;48.224;8.572;2022-12-29T01:33:12;2.20;;;1.75;;
9541;SDS011;4809;48.224;8.572;2022-12-29T01:35:38;1.63;;;1.52;;
9541;SDS011;4809;48.224;8.572;2022-12-29T01:38:03;2.97;;;1.60;;
9541;SDS011;4809;48.224;8.572;2022-12-29T01:40:29;1.77;;;1.60;;
9541;SDS011;4809;48.224;8.572;2022-12-29T01:42:55;3.33;;;1.90;;
9541;SDS011;4809;48.224;8.572;2022-12-29T01:45:21;2.05;;;1.85;;
9541;SDS011;4809;48.224;8.572;2022-12-29T01:47:59;2.90;;;1.55;;
9541;SDS011;4809;48.224;8.572;2022-12-29T01:50:31;2.63;;;1.50;;
9541;SDS011;4809;48.224;8.572;2022-12-29T01:55:29;1.92;;;1.67;;
9541;SDS011;4809;48.224;8.572;2022-12-29T01:57:58;2.22;;;1.23;;
9541;SDS011;4809;48.224;8.572;2022-12-29T02:00:27;2.05;;;1.50;;
9541;SDS011;4809;48.224;8.572;2022-12-29T02:02:52;3.40;;;1.40;;
9541;SDS011;4809;48.224;8.572;2022-12-29T02:08:06;1.65;;;1.52;;
9541;SDS011;4809;48.224;8.572;2022-12-29T02:10:34;2.00;;;1.73;;
9541;SDS011;4809;48.224;8.572;2022-12-29T02:13:01;4.22;;;1.80;;
9541;SDS011;4809;48.224;8.572;2022-12-29T02:41:01;2.55;;;1.45;;
9541;SDS011;4809;48.224;8.572;2022-12-29T02:43:56;2.30;;;1.42;;
9541;SDS011;4809;48.224;8.572;2022-12-29T02:49:15;2.33;;;1.45;;
9541;SDS011;4809;48.224;8.572;2022-12-29T02:51:52;4.55;;;1.65;;
9541;SDS011;4809;48.224;8.572;2022-12-29T02:54:26;1.75;;;1.10;;
9541;SDS011;4809;48.224;8.572;2022-12-29T02:59:45;1.83;;;1.50;;
9541;SDS011;4809;48.224;8.572;2022-12-29T03:17:07;1.58;;;1.48;;
9541;SDS011;4809;48.224;8.572;2022-12-29T03:22:01;2.35;;;1.60;;
9541;SDS011;4809;48.224;8.572;2022-12-29T03:27:40;2.42;;;1.60;;
9541;SDS011;4809;48.224;8.572;2022-12-29T03:30:09;5.13;;;1.60;;
9541;SDS011;4809;48.224;8.572;2022-12-29T03:32:44;3.03;;;1.90;;
9541;SDS011;4809;48.224;8.572;2022-12-29T03:35:13;2.20;;;1.63;;
9541;SDS011;4809;48.224;8.572;2022-12-29T03:37:47;1.95;;;1.58;;
9541;SDS011;4809;48.224;8.572;2022-12-29T03:40:18;3.58;;;1.60;;
9541;SDS011;4809;48.224;8.572;2022-12-29T03:42:47;2.65;;;1.60;;
9541;SDS011;4809;48.224;8.572;2022-12-29T03:45:13;2.67;;;1.75;;
9541;SDS011;4809;48.224;8.572;2022-12-29T03:47:39;2.95;;;1.60;;
9541;SDS011;4809;48.224;8.572;2022-12-29T03:50:05;2.88;;;1.90;;
9541;SDS011;4809;48.224;8.572;2022-12-29T03:52:33;2.50;;;1.67;;
9541;SDS011;4809;48.224;8.572;2022-12-29T03:54:59;3.42;;;1.83;;
9541;SDS011;4809;48.224;8.572;2022-12-29T03:57:25;1.65;;;1.50;;
9541;SDS011;4809;48.224;8.572;2022-12-29T03:59:50;3.38;;;1.80;;
9541;SDS011;4809;48.224;8.572;2022-12-29T04:02:16;1.92;;;1.52;;
9541;SDS011;4809;48.224;8.572;2022-12-29T04:04:41;3.83;;;1.55;;
9541;SDS011;4809;48.224;8.572;2022-12-29T04:07:07;1.60;;;1.50;;
9541;SDS011;4809;48.224;8.572;2022-12-29T04:09:33;3.28;;;1.83;;
9541;SDS011;4809;48.224;8.572;2022-12-29T04:11:59;1.95;;;1.42;;
9541;SDS011;4809;48.224;8.572;2022-12-29T04:14:24;1.98;;;1.70;;
9541;SDS011;4809;48.224;8.572;2022-12-29T04:16:50;2.85;;;1.73;;
9541;SDS011;4809;48.224;8.572;2022-12-29T04:19:15;1.90;;;1.60;;
9541;SDS011;4809;48.224;8.572;2022-12-29T04:21:41;2.35;;;1.58;;
9541;SDS011;4809;48.224;8.572;2022-12-29T04:24:07;2.75;;;1.70;;
9541;SDS011;4809;48.224;8.572;2022-12-29T04:26:33;2.97;;;2.00;;
9541;SDS011;4809;48.224;8.572;2022-12-29T04:28:58;2.47;;;1.70;;
9541;SDS011;4809;48.224;8.572;2022-12-29T04:31:24;2.20;;;1.70;;
9541;SDS011;4809;48.224;8.572;2022-12-29T04:33:49;3.03;;;1.92;;
9541;SDS011;4809;48.224;8.572;2022-12-29T04:36:15;2.40;;;1.88;;
9541;SDS011;4809;48.224;8.572;2022-12-29T04:38:41;3.60;;;1.70;;
9541;SDS011;4809;48.224;8.572;2022-12-29T04:41:07;2.25;;;1.77;;
9541;SDS011;4809;48.224;8.572;2022-12-29T04:43:32;3.60;;;1.80;;
9541;SDS011;4809;48.224;8.572;2022-12-29T04:45:58;2.65;;;1.50;;
9541;SDS011;4809;48.224;8.572;2022-12-29T04:48:23;1.85;;;1.65;;
9541;SDS011;4809;48.224;8.572;2022-12-29T04:50:49;2.88;;;1.95;;
9541;SDS011;4809;48.224;8.572;2022-12-29T04:53:15;2.40;;;1.80;;
9541;SDS011;4809;48.224;8.572;2022-12-29T04:55:42;2.33;;;1.90;;
9541;SDS011;4809;48.224;8.572;2022-12-29T04:58:08;1.92;;;1.70;;
9541;SDS011;4809;48.224;8.572;2022-12-29T05:00:34;3.25;;;1.83;;
9541;SDS011;4809;48.224;8.572;2022-12-29T05:02:59;2.25;;;1.77;;
9541;SDS011;4809;48.224;8.572;2022-12-29T05:05:25;2.90;;;1.98;;
9541;SDS011;4809;48.224;8.572;2022-12-29T05:07:51;4.22;;;2.00;;
9541;SDS011;4809;48.224;8.572;2022-12-29T05:10:16;1.88;;;1.50;;
9541;SDS011;4809;48.224;8.572;2022-12-29T05:12:42;2.72;;;1.73;;
9541;SDS011;4809;48.224;8.572;2022-12-29T05:15:08;2.17;;;1.70;;
9541;SDS011;4809;48.224;8.572;2022-12-29T05:17:35;2.17;;;1.60;;
9541;SDS011;4809;48.224;8.572;2022-12-29T05:20:00;1.50;;;1.40;;
9541;SDS011;4809;48.224;8.572;2022-12-29T05:22:26;2.20;;;1.58;;
9541;SDS011;4809;48.224;8.572;2022-12-29T05:24:52;1.73;;;1.63;;
9541;SDS011;4809;48.224;8.572;2022-12-29T05:27:17;2.10;;;1.60;;
9541;SDS011;4809;48.224;8.572;2022-12-29T05:29:43;1.90;;;1.50;;
9541;SDS011;4809;48.224;8.572;2022-12-29T05:32:08;1.52;;;1.42;;
9541;SDS011;4809;48.224;8.572;2022-12-29T05:34:34;4.30;;;1.77;;
9541;SDS011;4809;48.224;8.572;2022-12-29T05:37:00;1.83;;;1.65;;
9541;SDS011;4809;48.224;8.572;2022-12-29T05:39:27;2.13;;;1.60;;
9541;SDS011;4809;48.224;8.572;2022-12-29T05:41:53;2.70;;;1.52;;
9541;SDS011;4809;48.224;8.572;2022-12-29T05:44:18;2.55;;;1.77;;
9541;SDS011;4809;48.224;8.572;2022-12-29T05:46:44;1.80;;;1.70;;
9541;SDS011;4809;48.224;8.572;2022-12-29T05:49:09;2.33;;;1.70;;
9541;SDS011;4809;48.224;8.572;2022-12-29T05:51:35;2.42;;;1.80;;
9541;SDS011;4809;48.224;8.572;2022-12-29T05:54:01;2.03;;;1.70;;
9541;SDS011;4809;48.224;8.572;2022-12-29T05:56:26;2.17;;;1.80;;
9541;SDS011;4809;48.224;8.572;2022-12-29T05:58:52;2.30;;;1.88;;
9541;SDS011;4809;48.224;8.572;2022-12-29T06:01:18;4.22;;;1.90;;
9541;SDS011;4809;48.224;8.572;2022-12-29T06:03:43;2.42;;;2.08;;
9541;SDS011;4809;48.224;8.572;2022-12-29T06:06:09;2.38;;;1.98;;
9541;SDS011;4809;48.224;8.572;2022-12-29T06:08:35;2.95;;;1.83;;
9541;SDS011;4809;48.224;8.572;2022-12-29T06:11:00;2.42;;;1.80;;
9541;SDS011;4809;48.224;8.572;2022-12-29T06:13:26;3.13;;;1.77;;
9541;SDS011;4809;48.224;8.572;2022-12-29T06:15:52;2.35;;;2.00;;
9541;SDS011;4809;48.224;8.572;2022-12-29T06:18:18;1.98;;;1.70;;
9541;SDS011;4809;48.224;8.572;2022-12-29T06:20:43;2.70;;;1.73;;
9541;SDS011;4809;48.224;8.572;2022-12-29T06:23:09;2.42;;;1.80;;
9541;SDS011;4809;48.224;8.572;2022-12-29T06:25:36;2.08;;;1.67;;
9541;SDS011;4809;48.224;8.572;2022-12-29T06:28:02;2.33;;;1.73;;
9541;SDS011;4809;48.224;8.572;2022-12-29T06:30:28;1.77;;;1.67;;
9541;SDS011;4809;48.224;8.572;2022-12-29T06:32:54;1.90;;;1.70;;
9541;SDS011;4809;48.224;8.572;2022-12-29T06:35:20;2.45;;;1.83;;
9541;SDS011;4809;48.224;8.572;2022-12-29T06:37:47;2.10;;;1.90;;
9541;SDS011;4809;48.224;8.572;2022-12-29T06:40:13;2.20;;;1.83;;
9541;SDS011;4809;48.224;8.572;2022-12-29T06:42:38;2.45;;;2.00;;
9541;SDS011;4809;48.224;8.572;2022-12-29T06:45:04;2.20;;;1.80;;
9541;SDS011;4809;48.224;8.572;2022-12-29T06:47:30;2.45;;;1.70;;
9541;SDS011;4809;48.224;8.572;2022-12-29T06:49:56;2.17;;;1.98;;
9541;SDS011;4809;48.224;8.572;2022-12-29T06:52:21;3.50;;;1.75;;
9541;SDS011;4809;48.224;8.572;2022-12-29T06:54:49;2.95;;;1.60;;
9541;SDS011;4809;48.224;8.572;2022-12-29T06:57:14;2.20;;;2.00;;
9541;SDS011;4809;48.224;8.572;2022-12-29T06:59:40;1.67;;;1.58;;
9541;SDS011;4809;48.224;8.572;2022-12-29T07:02:06;2.40;;;2.10;;
9541;SDS011;4809;48.224;8.572;2022-12-29T07:04:31;2.30;;;1.75;;
9541;SDS011;4809;48.224;8.572;2022-12-29T07:06:57;2.15;;;1.95;;
9541;SDS011;4809;48.224;8.572;2022-12-29T07:09:23;2.58;;;1.45;;
9541;SDS011;4809;48.224;8.572;2022-12-29T07:11:49;2.30;;;1.48;;
9541;SDS011;4809;48.224;8.572;2022-12-29T07:14:15;3.47;;;1.50;;
9541;SDS011;4809;48.224;8.572;2022-12-29T07:16:40;2.42;;;1.50;;
9541;SDS011;4809;48.224;8.572;2022-12-29T07:19:06;3.00;;;1.80;;
9541;SDS011;4809;48.224;8.572;2022-12-29T07:21:32;2.00;;;1.70;;
9541;SDS011;4809;48.224;8.572;2022-12-29T07:23:57;2.53;;;1.67;;
9541;SDS011;4809;48.224;8.572;2022-12-29T07:26:23;3.45;;;2.05;;
9541;SDS011;4809;48.224;8.572;2022-12-29T07:28:49;5.03;;;3.42;;
9541;SDS011;4809;48.224;8.572;2022-12-29T07:31:19;2.30;;;2.00;;
9541;SDS011;4809;48.224;8.572;2022-12-29T07:33:46;3.13;;;1.80;;
9541;SDS011;4809;48.224;8.572;2022-12-29T07:36:13;3.45;;;2.00;;
9541;SDS011;4809;48.224;8.572;2022-12-29T07:38:39;2.70;;;1.67;;
9541;SDS011;4809;48.224;8.572;2022-12-29T07:41:05;2.58;;;1.70;;
9541;SDS011;4809;48.224;8.572;2022-12-29T07:43:31;3.00;;;1.52;;
9541;SDS011;4809;48.224;8.572;2022-12-29T07:45:57;2.92;;;1.80;;
9541;SDS011;4809;48.224;8.572;2022-12-29T07:48:23;2.00;;;1.80;;
9541;SDS011;4809;48.224;8.572;2022-12-29T07:50:48;1.98;;;1.70;;
9541;SDS011;4809;48.224;8.572;2022-12-29T07:53:14;2.80;;;2.10;;
9541;SDS011;4809;48.224;8.572;2022-12-29T07:55:40;3.72;;;2.10;;
9541;SDS011;4809;48.224;8.572;2022-12-29T07:58:06;3.33;;;2.25;;
9541;SDS011;4809;48.224;8.572;2022-12-29T08:00:32;3.33;;;1.98;;
9541;SDS011;4809;48.224;8.572;2022-12-29T08:02:57;3.20;;;2.03;;
9541;SDS011;4809;48.224;8.572;2022-12-29T08:05:23;2.10;;;1.88;;
9541;SDS011;4809;48.224;8.572;2022-12-29T08:07:49;3.85;;;2.00;;
9541;SDS011;4809;48.224;8.572;2022-12-29T08:10:14;2.10;;;2.00;;
9541;SDS011;4809;48.224;8.572;2022-12-29T08:12:41;2.88;;;1.90;;
9541;SDS011;4809;48.224;8.572;2022-12-29T08:15:07;2.60;;;1.73;;
9541;SDS011;4809;48.224;8.572;2022-12-29T08:17:34;2.70;;;1.60;;
9541;SDS011;4809;48.224;8.572;2022-12-29T08:20:00;3.00;;;2.10;;
9541;SDS011;4809;48.224;8.572;2022-12-29T08:22:26;2.55;;;1.70;;
9541;SDS011;4809;48.224;8.572;2022-12-29T08:24:51;2.25;;;1.65;;
9541;SDS011;4809;48.224;8.572;2022-12-29T08:27:17;2.80;;;1.80;;
9541;SDS011;4809;48.224;8.572;2022-12-29T08:29:43;2.55;;;2.00;;
9541;SDS011;4809;48.224;8.572;2022-12-29T08:32:09;2.95;;;1.90;;
9541;SDS011;4809;48.224;8.572;2022-12-29T08:34:35;2.83;;;1.75;;
9541;SDS011;4809;48.224;8.572;2022-12-29T08:37:01;1.88;;;1.67;;
9541;SDS011;4809;48.224;8.572;2022-12-29T08:39:26;2.35;;;1.92;;
9541;SDS011;4809;48.224;8.572;2022-12-29T08:41:52;2.17;;;1.80;;
9541;SDS011;4809;48.224;8.572;2022-12-29T08:44:18;2.88;;;1.98;;
9541;SDS011;4809;48.224;8.572;2022-12-29T08:46:43;2.45;;;1.70;;
9541;SDS011;4809;48.224;8.572;2022-12-29T08:49:09;2.10;;;1.90;;
9541;SDS011;4809;48.224;8.572;2022-12-29T08:51:35;2.67;;;1.90;;
9541;SDS011;4809;48.224;8.572;2022-12-29T08:54:00;3.28;;;1.88;;
9541;SDS011;4809;48.224;8.572;2022-12-29T08:56:26;3.88;;;1.90;;
9541;SDS011;4809;48.224;8.572;2022-12-29T08:58:52;3.28;;;1.83;;
9541;SDS011;4809;48.224;8.572;2022-12-29T09:01:18;4.43;;;2.75;;
9541;SDS011;4809;48.224;8.572;2022-12-29T09:03:45;3.50;;;2.00;;
9541;SDS011;4809;48.224;8.572;2022-12-29T09:06:10;3.30;;;2.15;;
9541;SDS011;4809;48.224;8.572;2022-12-29T09:08:36;2.75;;;1.85;;
9541;SDS011;4809;48.224;8.572;2022-12-29T09:11:15;2.08;;;1.80;;
9541;SDS011;4809;48.224;8.572;2022-12-29T09:13:44;4.32;;;3.15;;
9541;SDS011;4809;48.224;8.572;2022-12-29T09:16:12;2.63;;;2.10;;
9541;SDS011;4809;48.224;8.572;2022-12-29T09:18:38;2.40;;;2.20;;
9541;SDS011;4809;48.224;8.572;2022-12-29T09:21:05;5.15;;;2.20;;
9541;SDS011;4809;48.224;8.572;2022-12-29T09:23:32;4.43;;;2.20;;
9541;SDS011;4809;48.224;8.572;2022-12-29T09:25:59;4.60;;;2.00;;
9541;SDS011;4809;48.224;8.572;2022-12-29T09:28:25;3.30;;;2.00;;
9541;SDS011;4809;48.224;8.572;2022-12-29T09:30:50;3.30;;;2.10;;
9541;SDS011;4809;48.224;8.572;2022-12-29T09:33:16;3.53;;;1.90;;
9541;SDS011;4809;48.224;8.572;2022-12-29T09:35:43;2.20;;;2.00;;
9541;SDS011;4809;48.224;8.572;2022-12-29T09:38:09;3.70;;;2.10;;
9541;SDS011;4809;48.224;8.572;2022-12-29T09:40:36;2.53;;;1.80;;
9541;SDS011;4809;48.224;8.572;2022-12-29T09:48:30;2.60;;;1.70;;
9541;SDS011;4809;48.224;8.572;2022-12-29T09:51:01;1.80;;;1.70;;
9541;SDS011;4809;48.224;8.572;2022-12-29T09:53:31;1.70;;;1.60;;
9541;SDS011;4809;48.224;8.572;2022-12-29T09:56:05;2.05;;;1.85;;
9541;SDS011;4809;48.224;8.572;2022-12-29T09:58:50;3.47;;;1.77;;
9541;SDS011;4809;48.224;8.572;2022-12-29T10:03:56;2.60;;;1.75;;
9541;SDS011;4809;48.224;8.572;2022-12-29T10:06:34;4.10;;;1.83;;
9541;SDS011;4809;48.224;8.572;2022-12-29T10:21:17;2.25;;;1.70;;
9541;SDS011;4809;48.224;8.572;2022-12-29T10:23:53;3.47;;;1.73;;
9541;SDS011;4809;48.224;8.572;2022-12-29T10:26:26;30.65;;;21.20;;
9541;SDS011;4809;48.224;8.572;2022-12-29T10:28:59;2.40;;;2.20;;
9541;SDS011;4809;48.224;8.572;2022-12-29T10:31:32;2.70;;;2.50;;
9541;SDS011;4809;48.224;8.572;2022-12-29T10:34:03;1.60;;;1.50;;
9541;SDS011;4809;48.224;8.572;2022-12-29T10:36:39;1.90;;;1.80;;
9541;SDS011;4809;48.224;8.572;2022-12-29T10:41:51;2.38;;;1.60;;
9541;SDS011;4809;48.224;8.572;2022-12-29T10:44:22;2.00;;;1.77;;
9541;SDS011;4809;48.224;8.572;2022-12-29T10:46:57;2.38;;;1.80;;
9541;SDS011;4809;48.224;8.572;2022-12-29T10:49:28;4.60;;;3.95;;
9541;SDS011;4809;48.224;8.572;2022-12-29T10:51:56;2.55;;;2.10;;
9541;SDS011;4809;48.224;8.572;2022-12-29T10:55:07;10.25;;;8.07;;
9541;SDS011;4809;48.224;8.572;2022-12-29T10:57:27;4.28;;;2.58;;
9541;SDS011;4809;48.224;8.572;2022-12-29T10:59:53;2.95;;;2.65;;
9541;SDS011;4809;48.224;8.572;2022-12-29T11:02:42;4.32;;;3.65;;
9541;SDS011;4809;48.224;8.572;2022-12-29T11:07:48;9.13;;;6.97;;
9541;SDS011;4809;48.224;8.572;2022-12-29T11:10:28;2.15;;;1.95;;
9541;SDS011;4809;48.224;8.572;2022-12-29T11:12:58;2.47;;;2.03;;
9541;SDS011;4809;48.224;8.572;2022-12-29T11:15:26;2.25;;;1.50;;
9541;SDS011;4809;48.224;8.572;2022-12-29T11:17:58;1.65;;;1.30;;
9541;SDS011;4809;48.224;8.572;2022-12-29T11:20:37;1.73;;;1.50;;
9541;SDS011;4809;48.224;8.572;2022-12-29T11:23:24;4.00;;;2.88;;
9541;SDS011;4809;48.224;8.572;2022-12-29T11:28:33;3.50;;;2.28;;
9541;SDS011;4809;48.224;8.572;2022-12-29T11:31:00;5.22;;;4.18;;
9541;SDS011;4809;48.224;8.572;2022-12-29T11:33:27;2.13;;;1.90;;
9541;SDS011;4809;48.224;8.572;2022-12-29T11:35:57;3.75;;;2.75;;
9541;SDS011;4809;48.224;8.572;2022-12-29T11:38:28;2.95;;;2.50;;
9541;SDS011;4809;48.224;8.572;2022-12-29T11:41:01;5.63;;;4.00;;
9541;SDS011;4809;48.224;8.572;2022-12-29T11:43:38;2.35;;;2.20;;
9541;SDS011;4809;48.224;8.572;2022-12-29T11:46:12;2.28;;;2.10;;
9541;SDS011;4809;48.224;8.572;2022-12-29T11:48:42;3.90;;;2.53;;
9541;SDS011;4809;48.224;8.572;2022-12-29T11:51:09;7.10;;;4.90;;
9541;SDS011;4809;48.224;8.572;2022-12-29T11:56:09;5.00;;;4.07;;
9541;SDS011;4809;48.224;8.572;2022-12-29T11:58:38;4.40;;;2.30;;
9541;SDS011;4809;48.224;8.572;2022-12-29T12:01:46;3.25;;;2.20;;
9541;SDS011;4809;48.224;8.572;2022-12-29T12:04:02;2.67;;;2.40;;
9541;SDS011;4809;48.224;8.572;2022-12-29T12:06:36;6.05;;;4.78;;
9541;SDS011;4809;48.224;8.572;2022-12-29T12:09:22;4.15;;;2.47;;
9541;SDS011;4809;48.224;8.572;2022-12-29T12:11:57;4.65;;;4.05;;
9541;SDS011;4809;48.224;8.572;2022-12-29T12:16:55;6.78;;;5.55;;
9541;SDS011;4809;48.224;8.572;2022-12-29T12:19:44;12.10;;;10.88;;
9541;SDS011;4809;48.224;8.572;2022-12-29T12:22:31;21.05;;;18.73;;
9541;SDS011;4809;48.224;8.572;2022-12-29T12:25:23;11.88;;;10.65;;
9541;SDS011;4809;48.224;8.572;2022-12-29T12:27:59;6.90;;;6.00;;
9541;SDS011;4809;48.224;8.572;2022-12-29T12:30:33;9.13;;;7.82;;
9541;SDS011;4809;48.224;8.572;2022-12-29T12:33:06;26.35;;;19.65;;
9541;SDS011;4809;48.224;8.572;2022-12-29T12:36:18;17.63;;;12.45;;
9541;SDS011;4809;48.224;8.572;2022-12-29T12:39:02;25.83;;;18.27;;
9541;SDS011;4809;48.224;8.572;2022-12-29T12:41:55;9.52;;;7.00;;
9541;SDS011;4809;48.224;8.572;2022-12-29T13:00:35;3.60;;;2.67;;
9541;SDS011;4809;48.224;8.572;2022-12-29T13:03:24;3.35;;;2.40;;
9541;SDS011;4809;48.224;8.572;2022-12-29T13:17:02;5.05;;;3.78;;
9541;SDS011;4809;48.224;8.572;2022-12-29T13:19:49;2.90;;;2.70;;
9541;SDS011;4809;48.224;8.572;2022-12-29T13:22:50;2.15;;;1.40;;
9541;SDS011;4809;48.224;8.572;2022-12-29T13:25:40;2.25;;;1.65;;
9541;SDS011;4809;48.224;8.572;2022-12-29T13:28:36;2.40;;;1.38;;
9541;SDS011;4809;48.224;8.572;2022-12-29T13:37:00;3.55;;;2.05;;
9541;SDS011;4809;48.224;8.572;2022-12-29T13:41:55;1.85;;;1.40;;
9541;SDS011;4809;48.224;8.572;2022-12-29T13:44:31;1.70;;;1.40;;
9541;SDS011;4809;48.224;8.572;2022-12-29T13:47:20;3.25;;;1.40;;
9541;SDS011;4809;48.224;8.572;2022-12-29T13:49:52;1.63;;;1.40;;
9541;SDS011;4809;48.224;8.572;2022-12-29T13:52:22;2.30;;;1.40;;
9541;SDS011;4809;48.224;8.572;2022-12-29T13:55:07;1.33;;;1.30;;
9541;SDS011;4809;48.224;8.572;2022-12-29T14:00:29;1.58;;;1.48;;
9541;SDS011;4809;48.224;8.572;2022-12-29T14:03:10;3.55;;;2.40;;
9541;SDS011;4809;48.224;8.572;2022-12-29T14:05:36;2.25;;;1.73;;
9541;SDS011;4809;48.224;8.572;2022-12-29T14:08:03;1.80;;;1.70;;
9541;SDS011;4809;48.224;8.572;2022-12-29T14:10:34;2.30;;;1.70;;
9541;SDS011;4809;48.224;8.572;2022-12-29T14:15:37;1.88;;;1.63;;
9541;SDS011;4809;48.224;8.572;2022-12-29T14:18:14;1.88;;;1.42;;
9541;SDS011;4809;48.224;8.572;2022-12-29T14:23:28;2.08;;;1.73;;
9541;SDS011;4809;48.224;8.572;2022-12-29T14:28:38;1.60;;;1.50;;
9541;SDS011;4809;48.224;8.572;2022-12-29T14:31:32;2.25;;;1.48;;
9541;SDS011;4809;48.224;8.572;2022-12-29T14:36:35;2.25;;;1.60;;
9541;SDS011;4809;48.224;8.572;2022-12-29T14:39:28;6.13;;;4.25;;
9541;SDS011;4809;48.224;8.572;2022-12-29T14:45:05;2.45;;;1.88;;
9541;SDS011;4809;48.224;8.572;2022-12-29T14:47:32;3.25;;;2.35;;
9541;SDS011;4809;48.224;8.572;2022-12-29T14:52:44;6.65;;;4.53;;
9541;SDS011;4809;48.224;8.572;2022-12-29T14:55:28;9.02;;;6.05;;
9541;SDS011;4809;48.224;8.572;2022-12-29T14:58:05;22.40;;;14.20;;
9541;SDS011;4809;48.224;8.572;2022-12-29T15:00:52;21.17;;;14.45;;
9541;SDS011;4809;48.224;8.572;2022-12-29T15:03:32;22.77;;;15.07;;
9541;SDS011;4809;48.224;8.572;2022-12-29T15:06:10;24.75;;;15.55;;
9541;SDS011;4809;48.224;8.572;2022-12-29T15:08:39;35.80;;;23.25;;
9541;SDS011;4809;48.224;8.572;2022-12-29T15:11:13;31.30;;;20.80;;
9541;SDS011;4809;48.224;8.572;2022-12-29T15:13:45;41.03;;;27.77;;
9541;SDS011;4809;48.224;8.572;2022-12-29T15:16:29;26.77;;;19.55;;
9541;SDS011;4809;48.224;8.572;2022-12-29T15:18:57;15.07;;;10.68;;
9541;SDS011;4809;48.224;8.572;2022-12-29T15:21:25;22.83;;;15.55;;
9541;SDS011;4809;48.224;8.572;2022-12-29T15:23:55;43.03;;;27.15;;
9541;SDS011;4809;48.224;8.572;2022-12-29T15:26:21;37.80;;;23.40;;
9541;SDS011;4809;48.224;8.572;2022-12-29T15:28:48;20.85;;;12.85;;
9541;SDS011;4809;48.224;8.572;2022-12-29T15:33:53;78.25;;;39.78;;
9541;SDS011;4809;48.224;8.572;2022-12-29T15:36:24;29.70;;;17.17;;
9541;SDS011;4809;48.224;8.572;2022-12-29T15:38:51;27.35;;;15.15;;
9541;SDS011;4809;48.224;8.572;2022-12-29T15:41:25;38.95;;;23.92;;
9541;SDS011;4809;48.224;8.572;2022-12-29T15:44:10;25.13;;;17.40;;
9541;SDS011;4809;48.224;8.572;2022-12-29T15:46:43;11.32;;;7.97;;
9541;SDS011;4809;48.224;8.572;2022-12-29T15:49:11;8.07;;;5.60;;
9541;SDS011;4809;48.224;8.572;2022-12-29T15:51:40;23.27;;;16.58;;
9541;SDS011;4809;48.224;8.572;2022-12-29T15:54:06;10.35;;;7.30;;
9541;SDS011;4809;48.224;8.572;2022-12-29T15:56:40;13.27;;;8.38;;
9541;SDS011;4809;48.224;8.572;2022-12-29T15:59:18;5.50;;;3.15;;
9541;SDS011;4809;48.224;8.572;2022-12-29T16:01:53;26.95;;;15.02;;
9541;SDS011;4809;48.224;8.572;2022-12-29T16:04:20;26.65;;;15.23;;
9541;SDS011;4809;48.224;8.572;2022-12-29T16:06:57;14.32;;;7.53;;
9541;SDS011;4809;48.224;8.572;2022-12-29T16:09:33;21.77;;;11.07;;
9541;SDS011;4809;48.224;8.572;2022-12-29T16:12:16;18.20;;;10.68;;
9541;SDS011;4809;48.224;8.572;2022-12-29T16:14:46;19.17;;;10.18;;
9541;SDS011;4809;48.224;8.572;2022-12-29T16:17:17;12.52;;;6.68;;
9541;SDS011;4809;48.224;8.572;2022-12-29T16:19:50;29.02;;;13.60;;
9541;SDS011;4809;48.224;8.572;2022-12-29T16:22:23;26.10;;;12.43;;
9541;SDS011;4809;48.224;8.572;2022-12-29T16:25:38;33.53;;;17.83;;
9541;SDS011;4809;48.224;8.572;2022-12-29T16:27:49;36.58;;;17.52;;
9541;SDS011;4809;48.224;8.572;2022-12-29T16:32:50;25.67;;;12.93;;
9541;SDS011;4809;48.224;8.572;2022-12-29T16:35:22;13.98;;;7.28;;
9541;SDS011;4809;48.224;8.572;2022-12-29T16:38:20;31.05;;;15.25;;
9541;SDS011;4809;48.224;8.572;2022-12-29T16:40:54;13.38;;;7.30;;
9541;SDS011;4809;48.224;8.572;2022-12-29T16:43:33;23.33;;;12.00;;
9541;SDS011;4809;48.224;8.572;2022-12-29T16:49:02;14.93;;;7.93;;
9541;SDS011;4809;48.224;8.572;2022-12-29T16:51:31;10.55;;;5.80;;
9541;SDS011;4809;48.224;8.572;2022-12-29T16:53:59;29.80;;;14.57;;
9541;SDS011;4809;48.224;8.572;2022-12-29T16:56:27;32.75;;;14.57;;
9541;SDS011;4809;48.224;8.572;2022-12-29T16:59:31;9.18;;;4.80;;
9541;SDS011;4809;48.224;8.572;2022-12-29T17:01:50;31.52;;;15.45;;
9541;SDS011;4809;48.224;8.572;2022-12-29T17:04:16;36.78;;;19.25;;
9541;SDS011;4809;48.224;8.572;2022-12-29T17:06:41;41.30;;;22.85;;
9541;SDS011;4809;48.224;8.572;2022-12-29T17:09:20;41.97;;;22.48;;
9541;SDS011;4809;48.224;8.572;2022-12-29T17:11:50;20.10;;;12.57;;
9541;SDS011;4809;48.224;8.572;2022-12-29T17:19:45;11.13;;;8.38;;
9541;SDS011;4809;48.224;8.572;2022-12-29T17:22:18;12.55;;;8.75;;
9541;SDS011;4809;48.224;8.572;2022-12-29T17:24:48;10.75;;;6.65;;
9541;SDS011;4809;48.224;8.572;2022-12-29T17:27:19;4.75;;;3.47;;
9541;SDS011;4809;48.224;8.572;2022-12-29T17:29:50;8.05;;;5.25;;
9541;SDS011;4809;48.224;8.572;2022-12-29T17:32:19;6.88;;;4.85;;
9541;SDS011;4809;48.224;8.572;2022-12-29T17:34:45;2.47;;;1.80;;
9541;SDS011;4809;48.224;8.572;2022-12-29T17:39:49;1.83;;;1.42;;
9541;SDS011;4809;48.224;8.572;2022-12-29T17:42:15;3.17;;;1.90;;
9541;SDS011;4809;48.224;8.572;2022-12-29T17:44:42;1.63;;;1.52;;
9541;SDS011;4809;48.224;8.572;2022-12-29T17:47:09;2.80;;;1.40;;
9541;SDS011;4809;48.224;8.572;2022-12-29T17:49:35;1.58;;;1.35;;
9541;SDS011;4809;48.224;8.572;2022-12-29T17:52:01;2.35;;;1.60;;
9541;SDS011;4809;48.224;8.572;2022-12-29T17:54:28;1.67;;;1.58;;
9541;SDS011;4809;48.224;8.572;2022-12-29T17:56:53;2.65;;;1.63;;
9541;SDS011;4809;48.224;8.572;2022-12-29T17:59:19;2.95;;;1.63;;
9541;SDS011;4809;48.224;8.572;2022-12-29T18:01:45;2.38;;;1.60;;
9541;SDS011;4809;48.224;8.572;2022-12-29T18:04:13;2.72;;;1.70;;
9541;SDS011;4809;48.224;8.572;2022-12-29T18:06:40;1.98;;;1.67;;
9541;SDS011;4809;48.224;8.572;2022-12-29T18:09:06;1.80;;;1.70;;
9541;SDS011;4809;48.224;8.572;2022-12-29T18:11:34;1.90;;;1.80;;
9541;SDS011;4809;48.224;8.572;2022-12-29T18:14:03;2.10;;;1.73;;
9541;SDS011;4809;48.224;8.572;2022-12-29T18:16:29;3.08;;;1.70;;